Time;durP1;ratioP1;P1;durP2;ratioP2;P2;SDS_P1;SDS_P2;PMS_P1;PMS_P2;Temp;Humidity;BMP_temperature;BMP_pressure;BME280_temperature;BME280_humidity;BME280_pressure;Samples;Min_cycle;Max_cycle;Signal;HPM_P1;HPM_P2
2022/03/30 00:00:37;;;;;;;22.60;7.95;;;4.90;99.90;;;;;;5013893;28;20054;-73
2022/03/30 00:03:04;;;;;;;17.83;7.68;;;4.00;99.90;;;;;;5012797;28;20046;-72
2022/03/30 00:05:30;;;;;;;19.17;8.13;;;4.00;99.90;;;;;;5012579;28;20401;-77
2022/03/30 00:07:56;;;;;;;20.48;7.72;;;4.00;99.90;;;;;;5014116;28;20046;-73
2022/03/30 00:10:22;;;;;;;19.48;7.63;;;4.40;99.90;;;;;;5012218;28;20049;-73
2022/03/30 00:12:49;;;;;;;19.00;8.02;;;4.10;99.90;;;;;;5012630;28;20056;-72
2022/03/30 00:15:16;;;;;;;18.67;7.72;;;4.90;99.90;;;;;;5013637;28;20093;-74
2022/03/30 00:17:42;;;;;;;17.58;7.90;;;4.10;99.90;;;;;;5011732;28;20054;-72
2022/03/30 00:20:09;;;;;;;20.90;7.68;;;4.10;99.90;;;;;;5013506;28;20132;-72
2022/03/30 00:22:34;;;;;;;19.67;8.38;;;4.20;99.90;;;;;;5012374;28;20511;-76
2022/03/30 00:25:00;;;;;;;18.75;7.68;;;4.20;99.90;;;;;;5012227;28;20053;-75
2022/03/30 00:27:26;;;;;;;23.40;8.50;;;4.20;99.90;;;;;;5013842;28;20046;-71
2022/03/30 00:29:51;;;;;;;22.05;8.45;;;4.20;99.90;;;;;;5013589;28;20074;-72
2022/03/30 00:32:17;;;;;;;21.52;7.97;;;4.10;99.90;;;;;;5012152;28;20107;-73
2022/03/30 00:34:44;;;;;;;19.65;9.13;;;4.10;99.90;;;;;;5013038;28;20045;-79
2022/03/30 00:37:10;;;;;;;22.00;8.45;;;4.10;99.90;;;;;;5013330;28;20048;-78
2022/03/30 00:39:36;;;;;;;20.33;8.23;;;4.90;99.90;;;;;;5013408;28;20042;-74
2022/03/30 00:42:03;;;;;;;23.17;8.45;;;4.10;99.90;;;;;;5013594;28;20104;-78
2022/03/30 00:44:29;;;;;;;22.63;7.93;;;4.00;99.90;;;;;;5012245;28;20061;-79
2022/03/30 00:46:54;;;;;;;20.40;7.50;;;4.00;99.90;;;;;;5011823;28;20050;-75
2022/03/30 00:49:20;;;;;;;19.00;8.63;;;4.00;99.90;;;;;;5012756;28;20049;-77
2022/03/30 00:51:46;;;;;;;20.90;8.63;;;4.00;99.90;;;;;;5012957;28;20107;-72
2022/03/30 00:54:11;;;;;;;23.17;9.27;;;3.90;99.90;;;;;;5011693;28;20057;-71
2022/03/30 00:56:42;;;;;;;26.02;9.23;;;3.90;99.90;;;;;;5011650;28;20042;-73
2022/03/30 00:59:07;;;;;;;24.02;8.75;;;3.90;99.90;;;;;;5011743;28;20057;-72
2022/03/30 01:01:36;;;;;;;19.58;8.95;;;3.80;99.90;;;;;;5013148;28;20422;-75
2022/03/30 01:04:03;;;;;;;19.67;8.95;;;3.90;99.90;;;;;;5012500;28;20179;-75
2022/03/30 01:06:29;;;;;;;20.90;8.55;;;3.80;99.90;;;;;;5012694;28;20069;-72
2022/03/30 01:08:55;;;;;;;22.85;8.90;;;3.80;99.90;;;;;;5011810;28;20053;-72
2022/03/30 01:11:22;;;;;;;23.70;9.02;;;3.80;99.90;;;;;;5012844;28;20046;-73
2022/03/30 01:13:48;;;;;;;21.35;9.35;;;3.90;99.90;;;;;;5012946;28;20055;-72
2022/03/30 01:16:15;;;;;;;22.85;8.73;;;3.80;99.90;;;;;;4994925;28;20107;-73
2022/03/30 01:18:41;;;;;;;23.33;9.50;;;4.20;99.90;;;;;;5012770;28;20501;-75
2022/03/30 01:21:10;;;;;;;23.65;7.78;;;3.90;99.90;;;;;;5011233;28;20124;-72
2022/03/30 01:23:36;;;;;;;19.35;9.02;;;3.80;99.90;;;;;;5012655;28;20038;-74
2022/03/30 01:26:05;;;;;;;21.60;9.05;;;3.80;99.90;;;;;;5012733;28;20049;-73
2022/03/30 01:28:35;;;;;;;19.88;9.10;;;3.80;99.90;;;;;;5012819;28;20129;-73
2022/03/30 01:33:46;;;;;;;18.73;9.63;;;4.10;99.90;;;;;;5012764;28;20046;-78
2022/03/30 01:36:15;;;;;;;27.70;10.55;;;3.70;99.90;;;;;;5012336;28;20042;-72
2022/03/30 01:38:43;;;;;;;26.20;10.35;;;3.70;99.90;;;;;;5012888;28;20456;-71
2022/03/30 01:41:08;;;;;;;23.30;9.85;;;3.90;99.90;;;;;;5012843;28;20052;-73
2022/03/30 01:43:34;;;;;;;23.13;10.45;;;3.70;99.90;;;;;;5022495;28;20090;-71
2022/03/30 01:46:00;;;;;;;28.67;11.07;;;3.70;99.90;;;;;;5026754;28;20517;-73
2022/03/30 01:48:26;;;;;;;26.38;10.30;;;3.80;99.90;;;;;;5017798;28;20049;-72
2022/03/30 01:50:52;;;;;;;22.42;9.77;;;3.70;99.90;;;;;;5017394;28;20394;-72
2022/03/30 01:53:18;;;;;;;27.00;10.95;;;3.80;99.90;;;;;;5013392;28;20192;-74
2022/03/30 01:55:44;;;;;;;25.45;10.38;;;3.70;99.90;;;;;;5011588;28;20530;-73
2022/03/30 01:58:10;;;;;;;24.08;10.93;;;3.80;99.90;;;;;;5012699;28;20046;-74
2022/03/30 02:00:35;;;;;;;31.00;10.88;;;3.80;99.90;;;;;;5011523;28;20401;-79
2022/03/30 02:03:02;;;;;;;25.20;10.27;;;3.80;99.90;;;;;;5011080;28;20097;-76
2022/03/30 02:05:28;;;;;;;26.00;10.45;;;3.80;99.90;;;;;;5015024;28;20046;-79
2022/03/30 02:07:54;;;;;;;24.73;10.32;;;3.80;99.90;;;;;;5015796;28;20410;-76
2022/03/30 02:10:20;;;;;;;27.45;10.20;;;3.90;99.90;;;;;;5015431;28;20050;-71
2022/03/30 02:12:46;;;;;;;30.23;11.00;;;3.80;99.90;;;;;;5015931;28;20085;-73
2022/03/30 02:15:13;;;;;;;28.65;11.20;;;3.90;99.90;;;;;;5015874;28;20089;-73
2022/03/30 02:17:39;;;;;;;25.27;11.27;;;3.90;99.90;;;;;;5016084;28;20108;-77
2022/03/30 02:20:06;;;;;;;30.90;11.60;;;3.90;99.90;;;;;;5014663;28;20121;-71
2022/03/30 02:22:31;;;;;;;23.83;10.57;;;4.00;99.90;;;;;;5015866;28;20041;-73
2022/03/30 02:24:57;;;;;;;24.05;9.73;;;4.00;99.90;;;;;;5015488;28;20041;-72
2022/03/30 02:27:23;;;;;;;28.73;10.65;;;4.00;99.90;;;;;;4998234;28;20049;-74
2022/03/30 02:29:52;;;;;;;24.98;10.88;;;4.10;99.90;;;;;;5016137;28;20116;-77
2022/03/30 02:32:18;;;;;;;29.20;12.95;;;4.10;99.90;;;;;;5016033;28;20045;-77
2022/03/30 02:34:45;;;;;;;23.52;11.93;;;4.10;99.90;;;;;;5015654;28;20057;-78
2022/03/30 02:37:12;;;;;;;24.02;11.60;;;4.20;99.90;;;;;;5015487;28;20489;-76
2022/03/30 02:39:38;;;;;;;27.98;12.60;;;4.20;99.90;;;;;;5015419;28;20053;-71
2022/03/30 02:42:06;;;;;;;30.52;12.15;;;4.20;99.90;;;;;;5016634;28;20041;-72
2022/03/30 02:44:33;;;;;;;29.13;12.68;;;4.30;99.90;;;;;;5018092;28;20046;-72
2022/03/30 02:46:58;;;;;;;34.35;14.05;;;4.30;99.90;;;;;;5017484;28;20081;-72
2022/03/30 02:49:25;;;;;;;33.13;13.82;;;4.30;99.90;;;;;;5017292;28;20525;-72
2022/03/30 02:51:51;;;;;;;33.35;12.85;;;4.40;99.90;;;;;;5016108;28;20046;-78
2022/03/30 02:54:17;;;;;;;32.67;13.85;;;4.40;99.90;;;;;;5014215;28;20148;-77
2022/03/30 02:56:42;;;;;;;31.98;14.40;;;4.40;99.90;;;;;;5013834;28;20167;-77
2022/03/30 02:59:08;;;;;;;36.83;15.05;;;4.40;99.90;;;;;;5014118;28;20054;-78
2022/03/30 03:01:33;;;;;;;38.70;14.50;;;4.40;99.90;;;;;;5015200;28;20038;-72
2022/03/30 03:03:59;;;;;;;40.40;14.57;;;4.40;99.90;;;;;;5014718;28;20041;-77
2022/03/30 03:06:25;;;;;;;36.88;15.23;;;4.50;99.90;;;;;;5015206;28;20042;-78
2022/03/30 03:08:51;;;;;;;34.70;14.85;;;4.50;99.90;;;;;;5015669;28;20108;-74
2022/03/30 03:11:17;;;;;;;35.80;14.93;;;4.50;99.90;;;;;;5015401;28;20116;-73
2022/03/30 03:13:43;;;;;;;36.35;15.10;;;4.50;99.90;;;;;;5013266;28;20054;-72
2022/03/30 03:16:12;;;;;;;32.47;15.02;;;4.50;99.90;;;;;;5013242;28;20108;-72
2022/03/30 03:18:37;;;;;;;36.22;15.15;;;4.60;99.90;;;;;;5014913;28;20050;-70
2022/03/30 03:21:03;;;;;;;35.65;15.52;;;4.60;99.90;;;;;;5013629;28;20045;-71
2022/03/30 03:23:28;;;;;;;31.48;13.98;;;4.60;99.90;;;;;;5014595;28;20049;-72
2022/03/30 03:25:54;;;;;;;38.42;14.90;;;4.60;99.90;;;;;;5013734;28;20042;-73
2022/03/30 03:28:20;;;;;;;36.40;16.10;;;4.60;99.90;;;;;;5013046;28;20519;-77
2022/03/30 03:30:45;;;;;;;29.05;13.85;;;4.60;99.90;;;;;;5014547;28;20049;-76
2022/03/30 03:33:11;;;;;;;30.80;12.77;;;4.70;99.90;;;;;;5015238;28;20121;-73
2022/03/30 03:35:37;;;;;;;31.17;13.07;;;4.70;99.90;;;;;;5014470;28;20072;-70
2022/03/30 03:38:04;;;;;;;35.55;12.98;;;4.70;99.90;;;;;;5020586;28;20053;-71
2022/03/30 03:40:33;;;;;;;30.60;12.75;;;4.70;99.90;;;;;;5027436;28;20045;-73
2022/03/30 03:43:03;;;;;;;31.02;12.52;;;4.70;99.90;;;;;;5024635;28;20046;-73
2022/03/30 03:45:30;;;;;;;32.90;12.10;;;4.70;99.90;;;;;;5021555;28;20069;-72
2022/03/30 03:47:56;;;;;;;31.65;13.38;;;5.10;99.90;;;;;;5020575;28;20042;-72
2022/03/30 03:50:22;;;;;;;26.63;11.18;;;4.90;99.90;;;;;;5014214;28;20551;-78
2022/03/30 03:52:48;;;;;;;28.02;11.65;;;5.00;99.90;;;;;;5014247;28;20053;-73
2022/03/30 03:55:14;;;;;;;25.48;10.38;;;5.00;99.90;;;;;;5014493;28;20057;-74
2022/03/30 03:57:40;;;;;;;28.25;11.25;;;4.70;99.90;;;;;;5012901;28;20042;-75
2022/03/30 04:00:09;;;;;;;26.60;11.25;;;4.70;99.90;;;;;;5012496;28;20054;-75
2022/03/30 04:02:34;;;;;;;29.83;12.07;;;4.70;99.90;;;;;;5014267;28;20533;-74
2022/03/30 04:05:00;;;;;;;29.02;11.82;;;4.70;99.90;;;;;;5012708;28;20127;-77
2022/03/30 04:07:26;;;;;;;26.00;10.75;;;4.70;99.90;;;;;;5013963;28;20508;-73
2022/03/30 04:09:52;;;;;;;26.40;11.40;;;4.70;99.90;;;;;;5013704;28;20149;-78
2022/03/30 04:12:17;;;;;;;32.65;13.00;;;4.70;99.90;;;;;;5013914;28;20442;-78
2022/03/30 04:14:43;;;;;;;27.48;11.27;;;4.70;99.90;;;;;;5013954;28;20048;-78
2022/03/30 04:17:09;;;;;;;29.65;11.43;;;4.70;99.90;;;;;;5012712;28;20077;-78
2022/03/30 04:19:34;;;;;;;28.27;11.10;;;4.70;99.90;;;;;;5013727;28;20057;-77
2022/03/30 04:22:01;;;;;;;28.65;11.77;;;4.70;99.90;;;;;;5012586;28;20049;-77
2022/03/30 04:24:28;;;;;;;31.48;12.77;;;4.70;99.90;;;;;;5013922;28;20085;-79
2022/03/30 04:26:53;;;;;;;38.10;13.82;;;4.70;99.90;;;;;;5013065;28;20061;-73
2022/03/30 04:29:19;;;;;;;31.63;13.23;;;4.70;99.90;;;;;;5012865;28;20050;-79
2022/03/30 04:31:44;;;;;;;28.00;12.68;;;4.70;99.90;;;;;;5012115;28;20042;-76
2022/03/30 04:34:10;;;;;;;31.80;12.45;;;4.80;99.90;;;;;;5013058;28;20482;-77
2022/03/30 04:36:36;;;;;;;23.52;11.80;;;4.80;99.90;;;;;;5012332;28;20050;-75
2022/03/30 04:39:02;;;;;;;32.17;10.90;;;4.80;99.90;;;;;;5013443;28;20053;-73
2022/03/30 04:41:28;;;;;;;27.58;10.48;;;4.80;99.90;;;;;;5012053;28;20103;-77
2022/03/30 04:43:53;;;;;;;27.88;11.10;;;4.80;99.90;;;;;;5012129;28;20124;-79
2022/03/30 04:46:19;;;;;;;22.30;9.55;;;4.90;99.90;;;;;;5012516;28;20041;-79
2022/03/30 04:48:44;;;;;;;19.80;7.72;;;4.90;99.90;;;;;;5011615;28;20101;-77
2022/03/30 04:51:10;;;;;;;19.90;8.65;;;4.90;99.90;;;;;;5012993;28;20089;-74
2022/03/30 04:53:36;;;;;;;24.13;8.13;;;4.90;99.90;;;;;;5013273;28;20077;-76
2022/03/30 04:56:02;;;;;;;20.52;7.45;;;4.80;99.90;;;;;;5012973;28;20516;-76
2022/03/30 04:58:27;;;;;;;17.83;7.05;;;4.90;99.90;;;;;;5013199;28;20045;-72
2022/03/30 05:00:53;;;;;;;19.95;7.13;;;4.90;99.90;;;;;;5013274;28;20053;-72
2022/03/30 05:03:18;;;;;;;12.93;4.25;;;4.90;99.90;;;;;;5012802;28;20074;-73
2022/03/30 05:05:44;;;;;;;13.07;3.85;;;4.80;99.90;;;;;;5012565;28;20045;-72
2022/03/30 05:08:10;;;;;;;14.20;3.85;;;4.80;99.90;;;;;;5010938;28;20116;-77
2022/03/30 05:10:36;;;;;;;12.68;3.38;;;4.80;99.90;;;;;;5013075;28;20042;-79
2022/03/30 05:13:04;;;;;;;8.05;2.60;;;4.80;99.90;;;;;;5011602;28;20107;-79
2022/03/30 05:15:30;;;;;;;9.35;2.58;;;4.80;99.90;;;;;;5013204;28;20050;-74
2022/03/30 05:17:56;;;;;;;7.55;2.10;;;4.70;99.90;;;;;;5013045;28;20085;-73
2022/03/30 05:20:24;;;;;;;8.90;2.08;;;4.70;99.90;;;;;;5012340;28;20073;-77
2022/03/30 05:22:50;;;;;;;11.48;2.22;;;4.70;99.90;;;;;;5012715;28;20061;-76
2022/03/30 05:25:19;;;;;;;6.13;1.95;;;4.70;99.90;;;;;;5012996;28;20441;-78
2022/03/30 05:27:45;;;;;;;5.20;2.03;;;4.70;99.90;;;;;;5015525;28;20042;-73
2022/03/30 05:30:15;;;;;;;5.38;1.50;;;4.70;99.90;;;;;;5021203;28;20112;-77
2022/03/30 05:32:44;;;;;;;6.45;1.73;;;4.60;99.90;;;;;;5024005;28;20041;-72
2022/03/30 05:35:11;;;;;;;4.75;1.45;;;4.60;99.90;;;;;;5038100;28;20050;-73
2022/03/30 05:37:36;;;;;;;4.07;1.35;;;4.60;99.90;;;;;;5025195;28;20121;-75
2022/03/30 05:40:04;;;;;;;5.97;1.40;;;4.60;99.90;;;;;;5025494;28;20096;-73
2022/03/30 05:42:30;;;;;;;3.92;0.90;;;4.50;99.90;;;;;;5021455;28;20038;-75
2022/03/30 05:44:55;;;;;;;4.68;1.40;;;4.60;99.90;;;;;;5017041;28;20056;-77
2022/03/30 05:47:21;;;;;;;5.22;1.25;;;4.60;99.90;;;;;;5015601;28;20100;-72
2022/03/30 05:49:47;;;;;;;3.17;1.00;;;4.50;99.90;;;;;;5016574;28;20050;-73
2022/03/30 05:52:13;;;;;;;4.75;1.13;;;4.90;99.90;;;;;;5015760;28;20053;-72
2022/03/30 05:54:38;;;;;;;2.97;1.00;;;4.50;99.90;;;;;;5016285;28;20081;-74
2022/03/30 05:57:05;;;;;;;3.17;1.13;;;4.50;99.90;;;;;;5015049;28;20760;-78
2022/03/30 05:59:34;;;;;;;4.68;1.38;;;4.50;99.90;;;;;;5016610;28;20085;-72
2022/03/30 06:02:01;;;;;;;5.03;0.90;;;4.50;99.90;;;;;;5016417;28;20058;-71
2022/03/30 06:04:28;;;;;;;2.63;0.80;;;4.30;99.90;;;;;;5015054;28;20050;-74
2022/03/30 06:06:54;;;;;;;2.47;0.80;;;4.50;99.90;;;;;;5016312;28;20049;-75
2022/03/30 06:09:20;;;;;;;1.83;0.57;;;4.50;99.90;;;;;;5015705;28;20042;-78
2022/03/30 06:11:46;;;;;;;1.02;0.55;;;4.50;99.90;;;;;;5015745;28;20068;-72
2022/03/30 06:14:14;;;;;;;2.08;0.85;;;4.40;99.90;;;;;;5016317;28;20453;-79
2022/03/30 06:16:41;;;;;;;1.65;0.63;;;4.40;99.90;;;;;;5015886;28;20414;-75
2022/03/30 06:19:09;;;;;;;2.53;0.90;;;4.40;99.90;;;;;;5016038;28;20467;-72
2022/03/30 06:21:35;;;;;;;2.58;0.50;;;4.40;99.90;;;;;;5013903;28;20054;-76
2022/03/30 06:24:01;;;;;;;2.03;0.93;;;4.40;99.90;;;;;;5015634;28;20495;-80
2022/03/30 06:26:27;;;;;;;0.90;0.63;;;4.40;99.90;;;;;;5015664;28;20777;-71
2022/03/30 06:28:53;;;;;;;2.17;0.85;;;4.40;99.90;;;;;;5015798;28;20050;-79
2022/03/30 06:31:18;;;;;;;1.55;0.68;;;4.50;99.90;;;;;;5014623;28;20053;-72
2022/03/30 06:33:45;;;;;;;3.45;0.75;;;4.50;99.90;;;;;;5015886;28;20398;-73
2022/03/30 06:36:12;;;;;;;2.90;0.85;;;4.50;99.90;;;;;;5015655;28;20045;-77
2022/03/30 06:38:37;;;;;;;3.35;0.88;;;4.50;99.90;;;;;;5014168;28;20049;-80
2022/03/30 06:41:04;;;;;;;2.38;0.90;;;4.60;99.90;;;;;;4993974;28;20057;-86
2022/03/30 06:43:30;;;;;;;1.35;0.70;;;4.60;99.90;;;;;;5014908;28;20121;-82
2022/03/30 06:45:56;;;;;;;2.75;1.00;;;4.70;99.90;;;;;;5013703;28;20477;-75
2022/03/30 06:48:21;;;;;;;3.47;1.13;;;4.70;99.90;;;;;;5014920;28;20046;-79
2022/03/30 06:50:47;;;;;;;5.60;0.80;;;4.70;99.90;;;;;;5013461;28;20046;-82
2022/03/30 06:53:13;;;;;;;1.92;0.90;;;5.30;99.90;;;;;;5014444;28;20152;-87
2022/03/30 06:55:38;;;;;;;4.70;1.25;;;4.80;99.90;;;;;;5014196;28;20057;-86
2022/03/30 06:58:05;;;;;;;3.22;1.02;;;4.80;99.90;;;;;;5013499;28;20053;-89
2022/03/30 07:00:31;;;;;;;2.20;1.00;;;4.80;99.90;;;;;;5014493;28;20054;-84
2022/03/30 07:02:57;;;;;;;2.95;1.10;;;4.80;99.90;;;;;;5012986;28;20153;-75
2022/03/30 07:05:23;;;;;;;1.80;0.70;;;4.80;99.90;;;;;;5013028;28;20104;-75
2022/03/30 07:10:33;;;;;;;2.70;0.90;;;4.90;99.90;;;;;;5020029;28;20096;-88
2022/03/30 07:13:03;;;;;;;3.53;0.80;;;4.90;99.90;;;;;;5023354;28;20112;-74
2022/03/30 07:15:30;;;;;;;2.05;0.75;;;5.00;99.90;;;;;;5022004;28;20053;-75
2022/03/30 07:17:58;;;;;;;4.97;1.17;;;5.00;99.90;;;;;;5025666;28;20046;-78
2022/03/30 07:20:26;;;;;;;2.40;0.98;;;5.10;99.90;;;;;;5034196;28;20045;-75
2022/03/30 07:22:52;;;;;;;1.52;0.70;;;5.20;99.90;;;;;;5036833;28;20095;-78
2022/03/30 07:25:20;;;;;;;2.90;0.70;;;5.20;99.90;;;;;;5044406;22;20042;-76
2022/03/30 07:27:48;;;;;;;2.30;0.70;;;5.10;99.90;;;;;;5031629;28;20100;-75
2022/03/30 07:30:16;;;;;;;1.73;0.63;;;5.20;99.90;;;;;;4988806;28;20409;-77
2022/03/30 07:32:44;;;;;;;3.05;1.08;;;5.20;99.90;;;;;;5015156;28;20371;-73
2022/03/30 07:35:12;;;;;;;1.40;0.73;;;5.40;99.90;;;;;;4993874;28;20674;-76
2022/03/30 07:37:38;;;;;;;5.75;1.10;;;5.40;99.90;;;;;;5012897;28;20053;-73
2022/03/30 07:40:07;;;;;;;4.63;1.58;;;5.40;99.90;;;;;;5012227;28;20441;-75
2022/03/30 07:42:33;;;;;;;1.35;0.70;;;5.40;99.90;;;;;;4993475;28;20054;-74
2022/03/30 07:44:59;;;;;;;2.88;0.80;;;5.40;99.90;;;;;;5008704;28;20375;-77
2022/03/30 07:47:25;;;;;;;2.47;0.70;;;5.40;99.90;;;;;;5011543;28;20099;-73
2022/03/30 07:49:52;;;;;;;2.50;0.85;;;5.40;99.90;;;;;;5010832;28;20181;-74
2022/03/30 07:52:18;;;;;;;2.92;0.82;;;5.50;99.90;;;;;;4996149;28;20115;-74
2022/03/30 07:54:44;;;;;;;2.95;0.77;;;6.00;99.90;;;;;;4998905;28;20054;-80
2022/03/30 07:57:10;;;;;;;3.45;0.60;;;5.90;99.90;;;;;;4994957;28;20092;-74
2022/03/30 07:59:35;;;;;;;2.60;0.95;;;6.20;99.90;;;;;;5010155;28;20081;-71
2022/03/30 08:02:02;;;;;;;4.95;1.00;;;6.20;99.90;;;;;;4992501;28;20050;-73
2022/03/30 08:04:27;;;;;;;3.30;1.00;;;5.80;99.90;;;;;;5009011;28;20042;-72
2022/03/30 08:06:54;;;;;;;3.92;0.90;;;5.80;99.90;;;;;;4992723;28;20065;-75
2022/03/30 08:09:19;;;;;;;2.47;0.90;;;5.80;99.90;;;;;;4994081;28;20046;-72
2022/03/30 08:11:46;;;;;;;5.32;0.98;;;5.80;99.90;;;;;;4993372;28;20485;-77
2022/03/30 08:14:12;;;;;;;3.97;0.98;;;5.80;99.90;;;;;;4982172;28;20397;-73
2022/03/30 08:16:39;;;;;;;4.60;1.40;;;5.90;99.90;;;;;;4991087;28;20073;-74
2022/03/30 08:19:05;;;;;;;3.22;1.23;;;5.90;99.90;;;;;;4992560;28;20120;-75
2022/03/30 08:24:16;;;;;;;6.35;1.60;;;5.90;99.90;;;;;;4985443;28;20120;-74
2022/03/30 08:26:42;;;;;;;3.38;1.00;;;6.00;99.90;;;;;;4992351;28;20056;-75
2022/03/30 08:29:09;;;;;;;6.63;2.08;;;5.90;99.90;;;;;;4993304;28;20034;-76
2022/03/30 08:31:35;;;;;;;3.25;1.10;;;6.60;99.90;;;;;;5078467;22;20084;-74
2022/03/30 08:34:01;;;;;;;4.38;1.20;;;6.10;99.90;;;;;;5008901;28;20159;-72
2022/03/30 08:36:29;;;;;;;3.95;1.20;;;6.10;99.90;;;;;;5029699;28;20447;-71
2022/03/30 08:38:59;;;;;;;8.80;1.65;;;6.10;99.90;;;;;;5011534;28;20061;-72
2022/03/30 08:41:27;;;;;;;2.90;0.90;;;6.10;99.90;;;;;;5010155;28;20049;-73
2022/03/30 08:44:01;;;;;;;2.42;0.80;;;6.10;99.90;;;;;;5026552;28;20057;-72
2022/03/30 08:46:27;;;;;;;3.80;1.00;;;6.10;99.90;;;;;;5011584;28;20046;-72
2022/03/30 08:48:53;;;;;;;4.38;0.98;;;6.20;99.90;;;;;;5010190;28;20054;-74
2022/03/30 08:51:21;;;;;;;2.97;1.05;;;6.20;99.90;;;;;;5028029;28;20048;-72
2022/03/30 08:53:49;;;;;;;4.85;1.15;;;6.20;99.90;;;;;;5024292;28;20103;-72
2022/03/30 08:56:15;;;;;;;3.83;1.10;;;6.20;99.90;;;;;;5010836;28;20458;-74
2022/03/30 08:58:41;;;;;;;4.47;1.10;;;6.30;99.90;;;;;;5009852;28;20041;-74
2022/03/30 09:01:11;;;;;;;5.45;1.52;;;6.30;99.90;;;;;;5028596;28;20555;-72
2022/03/30 09:03:57;;;;;;;2.55;1.15;;;6.30;99.90;;;;;;5007778;28;20085;-71
2022/03/30 09:06:40;;;;;;;4.55;1.20;;;6.20;99.90;;;;;;5028615;28;20046;-70
2022/03/30 09:09:06;;;;;;;5.25;1.15;;;6.30;99.90;;;;;;5011545;28;20080;-72
2022/03/30 09:11:53;;;;;;;4.93;1.42;;;6.30;99.90;;;;;;5029759;28;20052;-73
2022/03/30 09:14:21;;;;;;;4.07;1.20;;;6.70;99.90;;;;;;5044265;28;20037;-71
2022/03/30 09:16:53;;;;;;;4.97;1.13;;;6.30;99.90;;;;;;5020493;28;20483;-67
2022/03/30 09:19:22;;;;;;;3.90;1.02;;;6.30;99.90;;;;;;5011138;28;20089;-70
2022/03/30 09:21:57;;;;;;;5.35;1.00;;;6.20;99.90;;;;;;5010826;28;20053;-71
2022/03/30 09:24:25;;;;;;;3.00;1.10;;;6.30;99.90;;;;;;5027061;28;20468;-69
2022/03/30 09:26:52;;;;;;;4.82;0.90;;;6.20;99.90;;;;;;5028901;28;20084;-71
2022/03/30 09:29:25;;;;;;;2.28;1.10;;;6.00;99.90;;;;;;4991040;28;20569;-71
2022/03/30 09:31:52;;;;;;;3.28;0.95;;;6.70;99.90;;;;;;4986684;28;20201;-71
2022/03/30 09:34:19;;;;;;;3.67;0.82;;;6.10;99.90;;;;;;4997304;28;20050;-68
2022/03/30 09:36:46;;;;;;;3.10;0.80;;;6.10;99.90;;;;;;4997874;28;20058;-67
2022/03/30 09:39:35;;;;;;;3.47;0.93;;;6.20;99.90;;;;;;5001163;28;20081;-70
2022/03/30 09:42:02;;;;;;;3.40;0.85;;;6.30;99.90;;;;;;4991059;28;20461;-69
2022/03/30 09:44:30;;;;;;;1.90;0.98;;;6.30;99.90;;;;;;5004913;28;20480;-73
2022/03/30 09:47:06;;;;;;;4.80;0.82;;;6.50;99.90;;;;;;4999320;28;20085;-71
2022/03/30 09:49:38;;;;;;;3.63;1.10;;;6.60;99.90;;;;;;4997157;28;20064;-72
2022/03/30 09:52:30;;;;;;;1.88;0.60;;;6.80;99.90;;;;;;4986227;28;20054;-74
2022/03/30 09:55:02;;;;;;;4.43;1.02;;;6.60;99.90;;;;;;4990061;28;20061;-75
2022/03/30 09:57:32;;;;;;;3.80;0.90;;;6.60;99.90;;;;;;5003312;28;20173;-68
2022/03/30 10:00:10;;;;;;;3.65;1.20;;;6.70;99.90;;;;;;5009079;28;20515;-71
2022/03/30 10:02:46;;;;;;;4.40;0.90;;;6.70;99.90;;;;;;4997609;28;20058;-70
2022/03/30 10:05:15;;;;;;;3.85;0.90;;;6.50;99.90;;;;;;4999183;28;20069;-69
2022/03/30 10:07:42;;;;;;;2.58;0.70;;;6.30;99.90;;;;;;5005876;28;20379;-74
2022/03/30 10:10:10;;;;;;;1.55;0.68;;;6.20;99.90;;;;;;4996462;28;20113;-73
2022/03/30 10:12:37;;;;;;;3.17;0.70;;;6.20;99.90;;;;;;4991881;23;20038;-75
2022/03/30 10:15:04;;;;;;;4.45;0.70;;;6.30;99.90;;;;;;5005010;28;20465;-72
2022/03/30 10:17:33;;;;;;;1.17;0.43;;;6.30;99.90;;;;;;4990520;28;20046;-70
2022/03/30 10:20:01;;;;;;;5.95;0.85;;;6.40;99.90;;;;;;4990549;28;20058;-72
2022/03/30 10:22:41;;;;;;;3.10;0.65;;;6.50;99.90;;;;;;4990713;28;20097;-73
2022/03/30 10:25:56;;;;;;;4.00;0.50;;;6.60;99.90;;;;;;4987963;28;20045;-74
2022/03/30 10:28:50;;;;;;;1.90;0.30;;;6.60;99.90;;;;;;4994797;28;20061;-70
2022/03/30 10:31:21;;;;;;;0.90;0.40;;;6.70;99.90;;;;;;4994050;28;20070;-72
2022/03/30 10:33:47;;;;;;;2.35;0.50;;;6.70;99.90;;;;;;4990795;28;20417;-72
2022/03/30 10:36:57;;;;;;;2.58;0.50;;;6.90;99.90;;;;;;4993886;28;20062;-72
2022/03/30 10:39:26;;;;;;;2.55;0.68;;;6.80;99.90;;;;;;5011177;28;20108;-72
2022/03/30 10:42:09;;;;;;;0.85;0.50;;;6.80;99.90;;;;;;4995024;28;20053;-71
2022/03/30 10:44:46;;;;;;;2.35;0.70;;;6.80;99.90;;;;;;4990095;28;20064;-73
2022/03/30 10:47:27;;;;;;;1.88;0.63;;;6.80;99.90;;;;;;4963424;28;20121;-72
2022/03/30 10:49:55;;;;;;;1.02;0.57;;;7.00;99.90;;;;;;5011733;28;20121;-72
2022/03/30 10:52:26;;;;;;;2.35;0.60;;;6.90;99.90;;;;;;5010465;28;20653;-76
2022/03/30 10:55:12;;;;;;;1.88;0.60;;;6.90;99.90;;;;;;5007266;28;20512;-73
2022/03/30 10:57:44;;;;;;;2.33;0.50;;;6.90;99.90;;;;;;5024249;28;20057;-72
2022/03/30 11:00:17;;;;;;;3.13;0.60;;;7.00;99.90;;;;;;5029593;28;20516;-73
2022/03/30 11:02:43;;;;;;;2.00;0.70;;;7.00;99.90;;;;;;5008181;28;20474;-74
2022/03/30 11:05:15;;;;;;;2.58;0.55;;;7.00;99.90;;;;;;5002982;28;20045;-73
2022/03/30 11:07:43;;;;;;;1.92;0.80;;;7.20;99.90;;;;;;5018004;28;20046;-73
2022/03/30 11:10:19;;;;;;;4.00;1.23;;;7.00;99.90;;;;;;5011790;28;20129;-73
2022/03/30 11:13:11;;;;;;;7.07;1.10;;;7.00;99.90;;;;;;5012047;28;20042;-73
2022/03/30 11:15:59;;;;;;;4.80;0.90;;;6.90;99.90;;;;;;4991961;28;20056;-73
2022/03/30 11:18:27;;;;;;;1.10;0.60;;;6.90;99.90;;;;;;5009902;28;20049;-72
2022/03/30 11:21:15;;;;;;;2.28;0.65;;;7.20;99.90;;;;;;5013572;28;20101;-73
2022/03/30 11:24:04;;;;;;;2.33;0.70;;;6.90;99.90;;;;;;5015650;28;20050;-74
2022/03/30 11:26:48;;;;;;;2.53;0.88;;;6.90;99.90;;;;;;4996074;28;20057;-73
2022/03/30 11:29:42;;;;;;;1.40;0.70;;;7.00;99.90;;;;;;4990582;28;20053;-74
2022/03/30 11:32:22;;;;;;;4.55;0.90;;;7.00;99.90;;;;;;5011572;28;20069;-73
2022/03/30 11:34:54;;;;;;;2.25;0.90;;;6.90;99.90;;;;;;4992122;28;20045;-75
2022/03/30 11:37:35;;;;;;;3.05;0.90;;;7.00;99.90;;;;;;5013346;28;20037;-71
2022/03/30 11:40:09;;;;;;;4.40;0.73;;;7.20;99.90;;;;;;5018281;28;20120;-73
2022/03/30 11:42:44;;;;;;;5.93;1.17;;;7.20;99.90;;;;;;4977296;28;20081;-75
2022/03/30 11:45:13;;;;;;;4.30;0.90;;;7.20;99.90;;;;;;4995453;28;20050;-75
2022/03/30 11:48:10;;;;;;;1.95;0.93;;;7.40;99.90;;;;;;4997911;28;20045;-77
2022/03/30 11:50:46;;;;;;;3.58;0.98;;;7.50;99.90;;;;;;4992039;28;20065;-73
2022/03/30 11:53:12;;;;;;;4.38;0.88;;;7.60;99.90;;;;;;4993952;28;20139;-75
2022/03/30 11:55:50;;;;;;;3.35;0.75;;;7.80;99.90;;;;;;5009342;28;20046;-75
2022/03/30 11:58:27;;;;;;;6.32;1.13;;;7.70;99.90;;;;;;5010129;28;20340;-75
2022/03/30 12:00:56;;;;;;;2.03;0.82;;;7.80;99.90;;;;;;5006868;28;20125;-72
2022/03/30 12:03:23;;;;;;;1.55;0.75;;;7.80;99.90;;;;;;5010817;28;20125;-74
2022/03/30 12:05:56;;;;;;;2.22;0.80;;;8.10;99.90;;;;;;5009961;28;20050;-74
2022/03/30 12:08:24;;;;;;;5.82;1.10;;;7.80;99.90;;;;;;4989536;28;20082;-74
2022/03/30 12:10:53;;;;;;;2.55;0.88;;;7.80;99.90;;;;;;5010140;28;20078;-75
2022/03/30 12:13:24;;;;;;;7.55;1.17;;;7.70;99.90;;;;;;5010766;28;20112;-71
2022/03/30 12:16:02;;;;;;;2.47;0.90;;;7.80;99.90;;;;;;4991272;28;20498;-76
2022/03/30 12:18:30;;;;;;;6.82;1.75;;;7.90;99.90;;;;;;5011139;28;20052;-74
2022/03/30 12:21:02;;;;;;;3.33;1.10;;;8.00;99.90;;;;;;5010547;28;20053;-75
2022/03/30 12:23:28;;;;;;;;;;;8.00;99.90;;;;;;4989794;28;20108;-76
2022/03/30 12:25:53;;;;;;;2.30;0.77;;;8.10;99.90;;;;;;5010553;28;20396;-76
2022/03/30 12:28:30;;;;;;;3.58;1.17;;;8.10;99.90;;;;;;4993728;28;20050;-73
2022/03/30 12:30:56;;;;;;;2.83;0.68;;;9.00;99.90;;;;;;5011737;28;20120;-75
2022/03/30 12:33:22;;;;;;;2.13;0.75;;;8.50;99.90;;;;;;5010270;28;20049;-75
2022/03/30 12:35:47;;;;;;;1.65;0.80;;;8.50;99.90;;;;;;4991753;28;20054;-76
2022/03/30 12:38:15;;;;;;;2.75;0.90;;;8.70;99.90;;;;;;5010287;28;20049;-76
2022/03/30 12:40:48;;;;;;;5.57;1.20;;;8.10;99.90;;;;;;4994891;28;20086;-75
2022/03/30 12:43:14;;;;;;;4.65;1.17;;;8.00;99.90;;;;;;5025197;28;20038;-74
2022/03/30 12:45:59;;;;;;;2.78;1.10;;;7.90;99.90;;;;;;5027228;28;20037;-74
2022/03/30 12:48:34;;;;;;;2.22;1.15;;;7.60;99.90;;;;;;4985491;28;20042;-73
2022/03/30 12:51:17;;;;;;;4.97;1.77;;;7.40;99.90;;;;;;5002766;28;20057;-74
2022/03/30 12:53:46;;;;;;;7.90;2.08;;;7.30;99.90;;;;;;4982375;28;20050;-73
2022/03/30 12:56:20;;;;;;;6.50;1.92;;;7.10;99.90;;;;;;4980268;28;20184;-73
2022/03/30 12:58:56;;;;;;;3.15;1.40;;;7.00;99.90;;;;;;5011030;28;20096;-74
2022/03/30 13:01:45;;;;;;;6.88;1.30;;;6.80;99.90;;;;;;5010993;28;20391;-74
2022/03/30 13:04:30;;;;;;;3.53;1.00;;;6.70;99.90;;;;;;4991116;28;20053;-74
2022/03/30 13:07:06;;;;;;;5.13;1.50;;;6.60;99.90;;;;;;4995268;28;20191;-75